createdAt,value
2018-01-20T00:02:10.561Z,1.80
2018-01-20T00:04:38.110Z,1.79
2018-01-20T00:07:05.612Z,1.81
2018-01-20T00:09:45.046Z,1.83
2018-01-20T00:12:12.585Z,1.89
2018-01-20T00:14:40.124Z,1.92
2018-01-20T00:17:13.284Z,1.90
2018-01-20T00:19:40.812Z,1.89
2018-01-20T00:22:08.353Z,1.87
2018-01-20T00:24:41.486Z,1.90
2018-01-20T00:27:08.991Z,1.89
2018-01-20T00:29:36.532Z,1.88
2018-01-20T00:32:04.097Z,1.85
2018-01-20T00:34:31.660Z,1.85
2018-01-20T00:36:59.189Z,1.86
2018-01-20T00:39:26.913Z,1.77
2018-01-20T00:41:54.428Z,1.66
2018-01-20T00:44:21.955Z,1.69
2018-01-20T00:46:49.489Z,1.67
2018-01-20T00:49:16.991Z,1.66
2018-01-20T00:51:44.574Z,1.63
2018-01-20T00:54:12.082Z,1.62
2018-01-20T00:56:39.609Z,1.55
2018-01-20T00:59:07.161Z,1.51
2018-01-20T01:01:34.672Z,1.42
2018-01-20T01:04:02.247Z,1.36
2018-01-20T01:06:29.780Z,1.31
2018-01-20T01:08:57.286Z,1.32
2018-01-20T01:11:24.812Z,1.28
2018-01-20T01:13:52.360Z,1.23
2018-01-20T01:16:19.912Z,1.26
2018-01-20T01:18:47.469Z,1.23
2018-01-20T01:21:14.979Z,1.22
2018-01-20T01:23:42.508Z,1.22
2018-01-20T01:26:10.057Z,1.22
2018-01-20T01:28:37.592Z,1.26
2018-01-20T01:31:05.141Z,1.28
2018-01-20T01:33:32.799Z,1.30
2018-01-20T01:36:00.325Z,1.32
2018-01-20T01:38:27.872Z,1.33
2018-01-20T01:40:55.429Z,1.37
2018-01-20T01:43:22.945Z,1.41
2018-01-20T01:45:50.471Z,1.42
2018-01-20T01:48:18.005Z,1.43
2018-01-20T01:50:45.545Z,1.44
2018-01-20T01:53:13.079Z,1.41
2018-01-20T01:55:40.650Z,1.46
2018-01-20T01:58:08.158Z,1.41
2018-01-20T02:00:35.705Z,1.50
2018-01-20T02:03:03.257Z,1.53
2018-01-20T02:05:30.842Z,1.52
2018-01-20T02:07:58.361Z,1.52
2018-01-20T02:10:25.881Z,1.53
2018-01-20T02:12:53.628Z,1.52
2018-01-20T02:15:21.144Z,1.52
2018-01-20T02:17:48.740Z,1.58
2018-01-20T02:20:16.272Z,1.59
2018-01-20T02:22:43.796Z,1.54
2018-01-20T02:25:11.344Z,1.53
2018-01-20T02:27:38.887Z,1.58
2018-01-20T02:30:06.474Z,1.57
2018-01-20T02:32:33.990Z,1.56
2018-01-20T02:35:06.449Z,1.53
2018-01-20T02:37:33.989Z,1.53
2018-01-20T02:40:01.557Z,1.53
2018-01-20T02:42:29.277Z,1.53
2018-01-20T02:44:56.792Z,1.54
2018-01-20T02:47:24.333Z,1.58
2018-01-20T02:49:51.869Z,1.65
2018-01-20T02:52:19.393Z,1.58
2018-01-20T02:54:46.930Z,1.54
2018-01-20T02:57:14.473Z,1.53
2018-01-20T02:59:42.018Z,1.48
2018-01-20T03:02:09.575Z,1.48
2018-01-20T03:04:37.100Z,1.47
2018-01-20T03:07:04.642Z,1.45
2018-01-20T03:09:32.213Z,1.46
2018-01-20T03:11:59.765Z,1.46
2018-01-20T03:14:27.301Z,1.48
2018-01-20T03:16:54.813Z,1.51
2018-01-20T03:19:22.362Z,1.54
2018-01-20T03:21:49.874Z,1.56
2018-01-20T03:24:17.417Z,1.51
2018-01-20T03:26:44.929Z,1.48
2018-01-20T03:29:12.482Z,1.50
2018-01-20T03:31:40.266Z,1.54
2018-01-20T03:34:07.789Z,1.53
2018-01-20T03:36:35.301Z,1.52
2018-01-20T03:39:02.832Z,1.52
2018-01-20T03:41:30.733Z,1.51
2018-01-20T03:43:58.269Z,1.49
2018-01-20T03:46:25.820Z,1.44
2018-01-20T03:48:53.348Z,1.42
2018-01-20T03:51:20.857Z,1.38
2018-01-20T03:53:48.377Z,1.34
2018-01-20T03:56:15.901Z,1.34
2018-01-20T03:58:43.433Z,1.38
2018-01-20T04:01:10.951Z,1.38
2018-01-20T04:03:38.485Z,1.41
2018-01-20T04:06:06.374Z,1.48
2018-01-20T04:08:33.925Z,1.49
2018-01-20T04:11:01.465Z,1.48
2018-01-20T04:13:29.000Z,1.47
2018-01-20T04:15:56.552Z,1.52
2018-01-20T04:18:24.306Z,1.53
2018-01-20T04:20:51.813Z,1.55
2018-01-20T04:23:19.336Z,1.55
2018-01-20T04:25:46.865Z,1.52
2018-01-20T04:28:14.397Z,1.52
2018-01-20T04:30:41.938Z,1.52
2018-01-20T04:33:09.509Z,1.53
2018-01-20T04:35:37.041Z,1.55
2018-01-20T04:38:04.589Z,1.55
2018-01-20T04:40:32.133Z,1.57
2018-01-20T04:42:59.657Z,1.55
2018-01-20T04:45:27.193Z,1.56
2018-01-20T04:47:54.706Z,1.56
2018-01-20T04:50:22.251Z,1.52
2018-01-20T04:52:49.791Z,1.53
2018-01-20T04:55:17.299Z,1.52
2018-01-20T04:57:44.817Z,1.51
2018-01-20T05:00:12.364Z,1.53
2018-01-20T05:02:39.916Z,1.48
2018-01-20T05:05:08.310Z,1.47
2018-01-20T05:07:35.842Z,1.46
2018-01-20T05:10:03.369Z,1.46
2018-01-20T05:12:30.953Z,1.46
2018-01-20T05:14:58.492Z,1.47
2018-01-20T05:17:26.033Z,1.51
2018-01-20T05:19:53.592Z,1.52
2018-01-20T05:22:21.109Z,1.55
2018-01-20T05:24:48.637Z,1.56
2018-01-20T05:27:16.181Z,1.61
2018-01-20T05:29:43.711Z,1.66
2018-01-20T05:32:11.249Z,1.66
2018-01-20T05:34:39.022Z,1.68
2018-01-20T05:37:06.557Z,1.72
2018-01-20T05:39:34.073Z,1.71
2018-01-20T05:42:01.641Z,1.68
2018-01-20T05:44:29.191Z,1.67
2018-01-20T05:46:56.725Z,1.64
2018-01-20T05:49:24.297Z,1.62
2018-01-20T05:51:51.829Z,1.63
2018-01-20T05:54:19.368Z,1.63
2018-01-20T05:56:46.913Z,1.66
2018-01-20T05:59:14.429Z,1.67
2018-01-20T06:01:41.938Z,1.66
2018-01-20T06:04:09.493Z,1.68
2018-01-20T06:06:37.003Z,1.66
2018-01-20T06:09:04.565Z,1.68
2018-01-20T06:11:32.144Z,1.69
2018-01-20T06:13:59.690Z,1.65
2018-01-20T06:16:27.222Z,1.68
2018-01-20T06:18:54.973Z,1.70
2018-01-20T06:21:22.489Z,1.71
2018-01-20T06:23:50.009Z,1.72
2018-01-20T06:26:17.566Z,1.70
2018-01-20T06:28:45.125Z,1.72
2018-01-20T06:31:12.659Z,1.68
2018-01-20T06:33:40.177Z,1.67
2018-01-20T06:36:07.698Z,1.62
2018-01-20T06:38:35.232Z,1.62
2018-01-20T06:41:02.924Z,1.57
2018-01-20T06:43:30.480Z,1.57
2018-01-20T06:45:58.044Z,1.55
2018-01-20T06:48:25.621Z,1.58
2018-01-20T06:50:53.181Z,1.61
2018-01-20T06:53:20.781Z,1.58
2018-01-20T06:55:48.283Z,1.57
2018-01-20T06:58:15.799Z,1.60
2018-01-20T07:00:43.402Z,1.61
2018-01-20T07:03:10.977Z,1.58
2018-01-20T07:05:38.489Z,1.53
2018-01-20T07:08:06.020Z,1.54
2018-01-20T07:10:33.661Z,1.55
2018-01-20T07:13:01.299Z,1.56
2018-01-20T07:15:29.066Z,1.58
2018-01-20T07:17:56.572Z,1.55
2018-01-20T07:20:24.083Z,1.59
2018-01-20T07:22:51.701Z,1.60
2018-01-20T07:25:19.217Z,1.57
2018-01-20T07:27:46.778Z,1.57
2018-01-20T07:30:14.400Z,1.61
2018-01-20T07:32:41.973Z,1.59
2018-01-20T07:35:09.539Z,1.59
2018-01-20T07:37:37.100Z,1.62
2018-01-20T07:40:11.261Z,1.62
2018-01-20T07:42:39.007Z,1.62
2018-01-20T07:45:06.655Z,1.63
2018-01-20T07:47:34.183Z,1.66
2018-01-20T07:50:01.730Z,1.68
2018-01-20T07:52:29.262Z,1.67
2018-01-20T07:54:56.885Z,1.66
2018-01-20T07:57:24.720Z,1.68
2018-01-20T07:59:52.293Z,1.65
2018-01-20T08:02:19.843Z,1.65
2018-01-20T08:04:47.378Z,1.61
2018-01-20T08:07:14.909Z,1.66
2018-01-20T08:09:42.661Z,1.70
2018-01-20T08:12:10.184Z,1.75
2018-01-20T08:14:37.717Z,1.77
2018-01-20T08:17:05.312Z,1.79
2018-01-20T08:19:32.845Z,1.75
2018-01-20T08:22:00.416Z,1.77
2018-01-20T08:24:28.145Z,1.76
2018-01-20T08:26:55.660Z,1.76
2018-01-20T08:29:23.220Z,1.79
2018-01-20T08:31:50.740Z,1.85
2018-01-20T08:34:18.284Z,1.90
2018-01-20T08:36:45.798Z,1.93
2018-01-20T08:39:13.345Z,1.94
2018-01-20T08:41:40.896Z,1.96
2018-01-20T08:44:08.418Z,1.96
2018-01-20T08:46:35.973Z,1.98
2018-01-20T08:49:03.538Z,2.05
2018-01-20T08:51:31.050Z,2.05
2018-01-20T08:53:58.624Z,2.06
2018-01-20T08:56:26.208Z,2.00
2018-01-20T08:58:53.845Z,2.06
2018-01-20T09:01:21.387Z,2.14
2018-01-20T09:03:48.938Z,2.22
2018-01-20T09:06:16.481Z,2.27
2018-01-20T09:08:44.918Z,2.23
2018-01-20T09:11:12.449Z,2.25
2018-01-20T09:13:39.958Z,2.23
2018-01-20T09:16:07.568Z,2.21
2018-01-20T09:18:35.120Z,2.13
2018-01-20T09:21:02.660Z,2.06
2018-01-20T09:23:30.204Z,2.05
2018-01-20T09:25:57.796Z,2.03
2018-01-20T09:28:25.333Z,2.08
2018-01-20T09:30:52.927Z,2.00
2018-01-20T09:33:20.442Z,1.97
2018-01-20T09:35:47.949Z,2.04
2018-01-20T09:38:15.497Z,2.05
2018-01-20T09:40:43.040Z,2.00
2018-01-20T09:43:10.693Z,2.00
2018-01-20T09:45:38.219Z,2.01
2018-01-20T09:48:05.740Z,2.04
2018-01-20T09:50:33.444Z,2.12
2018-01-20T09:53:00.963Z,2.16
2018-01-20T09:55:28.511Z,2.17
2018-01-20T09:57:56.065Z,2.25
2018-01-20T10:00:23.623Z,2.30
2018-01-20T10:02:51.199Z,2.28
2018-01-20T10:05:18.714Z,2.35
2018-01-20T10:07:46.246Z,2.35
2018-01-20T10:10:13.801Z,2.35
2018-01-20T10:12:41.324Z,2.22
2018-01-20T10:15:08.845Z,2.19
2018-01-20T10:17:36.568Z,2.24
2018-01-20T10:20:04.090Z,2.35
2018-01-20T10:22:31.593Z,2.42
2018-01-20T10:24:59.349Z,2.48
2018-01-20T10:27:26.882Z,2.51
2018-01-20T10:29:56.291Z,2.54
2018-01-20T10:32:23.869Z,2.57
2018-01-20T10:34:51.730Z,2.56
2018-01-20T10:37:19.253Z,2.68
2018-01-20T10:39:46.790Z,2.74
2018-01-20T10:42:14.316Z,2.78
2018-01-20T10:44:41.869Z,2.92
2018-01-20T10:47:09.399Z,3.03
2018-01-20T10:49:36.935Z,3.09
2018-01-20T10:52:04.527Z,3.07
2018-01-20T10:54:32.836Z,3.12
2018-01-20T10:57:00.375Z,3.10
2018-01-20T10:59:27.937Z,3.07
2018-01-20T11:01:55.486Z,3.07
2018-01-20T11:04:23.061Z,3.15
2018-01-20T11:06:50.619Z,3.29
2018-01-20T11:09:18.171Z,3.44
2018-01-20T11:11:45.690Z,3.51
2018-01-20T11:14:13.248Z,3.82
2018-01-20T11:16:40.819Z,3.94
2018-01-20T11:19:08.354Z,3.95
2018-01-20T11:21:35.897Z,3.90
2018-01-20T11:24:03.468Z,4.01
2018-01-20T11:26:31.049Z,4.09
2018-01-20T11:28:58.586Z,3.94
2018-01-20T11:31:26.143Z,3.83
2018-01-20T11:33:53.718Z,3.65
2018-01-20T11:36:21.254Z,3.49
2018-01-20T11:38:48.773Z,3.49
2018-01-20T11:41:16.330Z,3.39
2018-01-20T11:43:43.890Z,3.36
2018-01-20T11:46:11.433Z,3.42
2018-01-20T11:48:38.981Z,3.44
2018-01-20T11:51:06.525Z,3.43
2018-01-20T11:53:34.051Z,3.44
2018-01-20T11:56:01.589Z,3.49
2018-01-20T11:58:29.132Z,3.78
2018-01-20T12:00:56.673Z,3.94
2018-01-20T12:03:24.197Z,4.04
2018-01-20T12:05:51.844Z,4.01
2018-01-20T12:08:19.386Z,3.85
2018-01-20T12:10:46.905Z,4.08
2018-01-20T12:13:14.437Z,4.44
2018-01-20T12:15:41.970Z,4.42
2018-01-20T12:18:09.512Z,4.17
2018-01-20T12:20:37.209Z,3.94
2018-01-20T12:23:04.731Z,3.83
2018-01-20T12:25:32.254Z,3.75
2018-01-20T12:27:59.787Z,3.65
2018-01-20T12:30:27.361Z,3.53
2018-01-20T12:32:54.922Z,3.57
2018-01-20T12:35:22.441Z,3.59
2018-01-20T12:37:49.976Z,3.70
2018-01-20T12:40:17.522Z,3.84
2018-01-20T12:42:45.065Z,3.92
2018-01-20T12:45:12.602Z,4.05
2018-01-20T12:47:40.129Z,4.17
2018-01-20T12:50:07.656Z,4.18
2018-01-20T12:52:35.209Z,4.09
2018-01-20T12:55:02.793Z,4.09
2018-01-20T12:57:30.371Z,4.07
2018-01-20T12:59:57.890Z,4.03
2018-01-20T13:02:25.425Z,3.95
2018-01-20T13:04:53.005Z,3.87
2018-01-20T13:07:20.523Z,3.79
2018-01-20T13:09:48.033Z,3.72
2018-01-20T13:12:15.756Z,3.68
2018-01-20T13:14:43.333Z,3.67
2018-01-20T13:17:10.891Z,3.76
2018-01-20T13:19:38.456Z,3.88
2018-01-20T13:22:05.987Z,3.85
2018-01-20T13:24:33.517Z,3.94
2018-01-20T13:27:01.045Z,3.93
2018-01-20T13:29:28.589Z,3.84
2018-01-20T13:31:56.165Z,3.85
2018-01-20T13:34:23.691Z,3.80
2018-01-20T13:36:51.213Z,3.82
2018-01-20T13:39:18.770Z,3.89
2018-01-20T13:41:46.312Z,3.80
2018-01-20T13:44:13.834Z,3.78
2018-01-20T13:46:41.448Z,3.74
2018-01-20T13:49:08.985Z,3.64
2018-01-20T13:51:36.503Z,3.57
2018-01-20T13:54:04.061Z,3.59
2018-01-20T13:56:31.569Z,3.64
2018-01-20T13:58:59.113Z,3.74
2018-01-20T14:01:26.910Z,3.76
2018-01-20T14:03:54.465Z,3.71
2018-01-20T14:06:21.969Z,3.74
2018-01-20T14:08:49.513Z,3.74
2018-01-20T14:11:17.035Z,3.73
2018-01-20T14:13:44.549Z,3.75
2018-01-20T14:16:12.109Z,3.79
2018-01-20T14:18:39.673Z,3.78
2018-01-20T14:21:07.210Z,3.81
2018-01-20T14:23:34.744Z,3.72
2018-01-20T14:26:02.321Z,3.72
2018-01-20T14:28:30.026Z,3.72
2018-01-20T14:30:57.588Z,3.60
2018-01-20T14:33:25.682Z,3.46
2018-01-20T14:35:56.159Z,3.37
2018-01-20T14:38:23.935Z,3.27
2018-01-20T14:40:51.506Z,3.25
2018-01-20T14:43:19.050Z,3.30
2018-01-20T14:45:46.593Z,3.32
2018-01-20T14:48:14.153Z,3.26
2018-01-20T14:50:41.733Z,3.21
2018-01-20T14:53:09.260Z,3.07
2018-01-20T14:55:36.825Z,3.04
2018-01-20T14:58:04.395Z,3.01
2018-01-20T15:00:32.052Z,2.94
2018-01-20T15:02:59.597Z,2.96
2018-01-20T15:05:27.118Z,2.93
2018-01-20T15:07:54.617Z,2.81
2018-01-20T15:10:22.164Z,2.73
2018-01-20T15:12:49.712Z,2.62
2018-01-20T15:15:17.241Z,2.58
2018-01-20T15:17:44.856Z,2.58
2018-01-20T15:20:12.385Z,2.56
2018-01-20T15:22:39.950Z,2.60
2018-01-20T15:25:08.096Z,2.64
2018-01-20T15:27:35.911Z,2.69
2018-01-20T15:30:03.424Z,2.70
2018-01-20T15:32:30.926Z,2.69
2018-01-20T15:34:58.583Z,2.74
2018-01-20T15:37:26.081Z,2.77
2018-01-20T15:39:53.610Z,2.81
2018-01-20T15:42:21.214Z,2.81
2018-01-20T15:44:48.742Z,2.81
2018-01-20T15:47:16.279Z,2.83
2018-01-20T15:49:43.789Z,2.77
2018-01-20T15:52:11.312Z,2.78
2018-01-20T15:54:38.952Z,2.72
2018-01-20T15:57:06.473Z,2.69
2018-01-20T15:59:34.028Z,2.62
2018-01-20T16:02:01.536Z,2.54
2018-01-20T16:04:29.068Z,2.48
2018-01-20T16:06:56.659Z,2.45
2018-01-20T16:09:24.203Z,2.43
2018-01-20T16:11:51.785Z,2.48
2018-01-20T16:14:19.326Z,2.53
2018-01-20T16:16:46.884Z,2.56
2018-01-20T16:19:14.392Z,2.62
2018-01-20T16:21:41.919Z,2.58
2018-01-20T16:24:09.568Z,2.60
2018-01-20T16:26:37.073Z,2.65
2018-01-20T16:29:04.576Z,2.68
2018-01-20T16:31:32.136Z,2.69
2018-01-20T16:33:59.699Z,2.64
2018-01-20T16:36:27.780Z,2.61
2018-01-20T16:38:55.290Z,2.64
2018-01-20T16:41:22.976Z,2.60
2018-01-20T16:43:50.496Z,2.59
2018-01-20T16:46:18.011Z,2.58
2018-01-20T16:48:45.556Z,2.57
2018-01-20T16:51:13.112Z,2.56
2018-01-20T16:53:40.627Z,2.50
2018-01-20T16:56:08.182Z,2.45
2018-01-20T16:58:35.774Z,2.40
2018-01-20T17:01:03.287Z,2.40
2018-01-20T17:03:30.818Z,2.47
2018-01-20T17:05:58.330Z,2.54
2018-01-20T17:08:26.897Z,2.59
2018-01-20T17:10:54.422Z,2.60
2018-01-20T17:13:21.980Z,2.58
2018-01-20T17:15:49.528Z,2.57
2018-01-20T17:18:17.082Z,2.57
2018-01-20T17:20:44.632Z,2.50
2018-01-20T17:23:12.227Z,2.50
2018-01-20T17:25:39.789Z,2.49
2018-01-20T17:28:07.444Z,2.48
2018-01-20T17:30:34.949Z,2.45
2018-01-20T17:33:02.458Z,2.47
2018-01-20T17:35:30.102Z,2.54
2018-01-20T17:37:57.641Z,2.62
2018-01-20T17:40:25.195Z,2.65
2018-01-20T17:42:52.733Z,2.54
2018-01-20T17:45:20.261Z,2.35
2018-01-20T17:47:47.797Z,2.30
2018-01-20T17:50:15.354Z,2.26
2018-01-20T17:52:42.876Z,2.20
2018-01-20T17:55:10.415Z,2.16
2018-01-20T17:57:37.950Z,2.15
2018-01-20T18:00:05.452Z,2.15
2018-01-20T18:02:33.152Z,2.41
2018-01-20T18:05:00.726Z,2.23
2018-01-20T18:07:28.232Z,2.09
2018-01-20T18:09:55.732Z,1.95
2018-01-20T18:12:23.287Z,1.87
2018-01-20T18:14:50.841Z,1.78
2018-01-20T18:17:18.442Z,1.72
2018-01-20T18:19:45.996Z,1.66
2018-01-20T18:22:13.733Z,1.60
2018-01-20T18:24:41.303Z,1.70
2018-01-20T18:27:08.949Z,1.65
2018-01-20T18:29:36.510Z,1.62
2018-01-20T18:32:04.036Z,1.57
2018-01-20T18:34:31.718Z,1.49
2018-01-20T18:36:59.239Z,1.44
2018-01-20T18:39:26.768Z,1.41
2018-01-20T18:41:54.358Z,1.40
2018-01-20T18:44:21.916Z,1.38
2018-01-20T18:46:49.425Z,1.35
2018-01-20T18:49:17.219Z,1.30
2018-01-20T18:51:44.746Z,1.27
2018-01-20T18:54:12.261Z,1.22
2018-01-20T18:56:39.908Z,1.16
2018-01-20T18:59:07.436Z,1.12
2018-01-20T19:01:34.986Z,1.12
2018-01-20T19:04:02.520Z,1.10
2018-01-20T19:06:30.221Z,1.06
2018-01-20T19:08:57.721Z,1.01
2018-01-20T19:11:25.224Z,0.98
2018-01-20T19:13:52.776Z,0.93
2018-01-20T19:16:20.288Z,0.90
2018-01-20T19:18:47.797Z,0.87
2018-01-20T19:21:15.344Z,0.83
2018-01-20T19:23:42.863Z,0.88
2018-01-20T19:26:10.398Z,0.85
2018-01-20T19:28:38.150Z,0.80
2018-01-20T19:31:05.689Z,0.74
2018-01-20T19:33:33.217Z,0.71
2018-01-20T19:36:00.818Z,0.68
2018-01-20T19:38:28.391Z,0.72
2018-01-20T19:40:55.900Z,0.71
2018-01-20T19:43:23.482Z,0.71
2018-01-20T19:45:50.984Z,0.71
2018-01-20T19:48:18.613Z,0.69
2018-01-20T19:50:46.171Z,0.64
2018-01-20T19:53:13.700Z,0.66
2018-01-20T19:55:41.297Z,0.69
2018-01-20T19:58:09.793Z,0.66
2018-01-20T20:00:37.351Z,0.63
2018-01-20T20:03:04.878Z,0.58
2018-01-20T20:05:32.431Z,0.50
2018-01-20T20:07:59.982Z,0.50
2018-01-20T20:10:27.550Z,0.51
2018-01-20T20:12:55.070Z,0.50
2018-01-20T20:15:22.719Z,0.53
2018-01-20T20:17:50.252Z,0.51
2018-01-20T20:20:17.781Z,0.50
2018-01-20T20:22:45.710Z,0.53
2018-01-20T20:25:13.230Z,0.52
2018-01-20T20:27:40.900Z,0.48
2018-01-20T20:30:08.424Z,0.44
2018-01-20T20:32:35.970Z,0.49
2018-01-20T20:35:03.509Z,0.51
2018-01-20T20:37:31.017Z,0.50
2018-01-20T20:39:58.544Z,0.48
2018-01-20T20:42:26.096Z,0.51
2018-01-20T20:44:53.631Z,0.55
2018-01-20T20:47:21.283Z,0.58
2018-01-20T20:49:49.081Z,0.60
2018-01-20T20:52:16.619Z,0.60
2018-01-20T20:54:44.190Z,0.64
2018-01-20T20:57:11.716Z,0.65
2018-01-20T20:59:39.239Z,0.60
2018-01-20T21:02:06.772Z,0.58
2018-01-20T21:04:34.735Z,0.54
2018-01-20T21:07:02.261Z,0.53
2018-01-20T21:09:30.039Z,0.55
2018-01-20T21:11:57.549Z,0.71
2018-01-20T21:14:25.136Z,0.68
2018-01-20T21:16:52.657Z,0.63
2018-01-20T21:19:20.799Z,0.62
2018-01-20T21:21:49.852Z,0.62
2018-01-20T21:24:17.417Z,0.50
2018-01-20T21:26:44.949Z,0.43
2018-01-20T21:29:12.558Z,0.37
2018-01-20T21:31:42.498Z,0.30
2018-01-20T21:34:12.074Z,0.26
2018-01-20T21:36:39.769Z,0.29
2018-01-20T21:39:07.413Z,0.25
2018-01-20T21:41:34.973Z,0.24
2018-01-20T21:44:02.493Z,0.22
2018-01-20T21:46:29.989Z,0.32
2018-01-20T21:48:57.630Z,0.44
2018-01-20T21:51:25.161Z,0.56
2018-01-20T21:53:52.697Z,0.61
2018-01-20T21:56:20.242Z,0.63
2018-01-20T21:58:47.865Z,0.70
2018-01-20T22:01:15.402Z,0.70
2018-01-20T22:03:42.952Z,0.62
2018-01-20T22:06:10.554Z,0.48
2018-01-20T22:08:38.102Z,0.38
2018-01-20T22:11:05.665Z,0.33
2018-01-20T22:13:33.324Z,0.28
2018-01-20T22:16:00.846Z,0.23
2018-01-20T22:18:28.572Z,0.20
2018-01-20T22:20:56.086Z,0.16
2018-01-20T22:23:23.602Z,0.08
2018-01-20T22:25:51.150Z,0.02
2018-01-20T22:28:18.801Z,-0.02
2018-01-20T22:30:46.328Z,-0.11
2018-01-20T22:33:13.917Z,-0.18
2018-01-20T22:35:41.442Z,-0.22
2018-01-20T22:38:10.912Z,-0.25
2018-01-20T22:40:40.280Z,-0.27
2018-01-20T22:43:09.468Z,-0.28
2018-01-20T22:45:38.886Z,-0.32
2018-01-20T22:48:06.968Z,-0.32
2018-01-20T22:50:34.596Z,-0.33
2018-01-20T22:53:02.125Z,-0.41
2018-01-20T22:55:29.636Z,-0.47
2018-01-20T22:57:57.167Z,-0.42
2018-01-20T23:00:24.749Z,-0.38
2018-01-20T23:02:52.265Z,-0.39
2018-01-20T23:05:19.781Z,-0.30
2018-01-20T23:07:47.331Z,-0.25
2018-01-20T23:10:14.859Z,-0.30
2018-01-20T23:12:42.425Z,-0.35
2018-01-20T23:15:10.087Z,-0.44
2018-01-20T23:17:37.626Z,-0.48
2018-01-20T23:20:05.421Z,-0.38
2018-01-20T23:22:32.944Z,-0.31
2018-01-20T23:25:00.450Z,-0.07
2018-01-20T23:27:28.210Z,-0.09
2018-01-20T23:29:55.736Z,-0.14
2018-01-20T23:32:23.346Z,-0.13
2018-01-20T23:34:50.891Z,-0.04
2018-01-20T23:37:18.432Z,-0.05
2018-01-20T23:39:45.959Z,-0.14
2018-01-20T23:42:13.482Z,-0.27
2018-01-20T23:44:40.996Z,-0.35
2018-01-20T23:47:08.564Z,-0.35
2018-01-20T23:49:36.090Z,-0.39
2018-01-20T23:52:03.633Z,-0.41
2018-01-20T23:54:31.335Z,-0.43
2018-01-20T23:56:58.858Z,-0.41
2018-01-20T23:59:26.372Z,-0.40
